Time;durP1;ratioP1;P1;durP2;ratioP2;P2;SDS_P1;SDS_P2;PMS_P1;PMS_P2;Temp;Humidity;BMP_temperature;BMP_pressure;BME280_temperature;BME280_humidity;BME280_pressure;Samples;Min_cycle;Max_cycle;Signal;HPM_P1;HPM_P2
2021/05/04 00:01:03;;;;;;;2.27;1.60;;;;;;;15.02;100.00;96540.91;5052784;28;20252;-76
2021/05/04 00:03:30;;;;;;;1.73;1.63;;;;;;;15.15;100.00;96541.94;5052312;28;20235;-76
2021/05/04 00:05:57;;;;;;;2.47;2.00;;;;;;;15.09;100.00;96536.53;5052400;28;20356;-76
2021/05/04 00:08:23;;;;;;;2.60;1.70;;;;;;;15.06;100.00;96536.88;5052258;28;20561;-76
2021/05/04 00:10:50;;;;;;;2.63;1.70;;;;;;;15.05;100.00;96541.38;5052154;28;20308;-76
2021/05/04 00:13:18;;;;;;;2.00;1.80;;;;;;;15.16;100.00;96532.97;5052088;28;20202;-76
2021/05/04 00:15:45;;;;;;;5.53;2.30;;;;;;;15.20;100.00;96533.44;5051902;28;20290;-76
2021/05/04 00:18:12;;;;;;;2.70;1.70;;;;;;;15.26;100.00;96538.00;5052411;28;20204;-75
2021/05/04 00:20:39;;;;;;;2.73;2.23;;;;;;;15.10;100.00;96530.22;5052054;28;20203;-75
2021/05/04 00:23:05;;;;;;;4.40;2.40;;;;;;;15.01;100.00;96540.09;5052378;28;20235;-76
2021/05/04 00:25:32;;;;;;;1.50;1.40;;;;;;;15.08;100.00;96535.72;5051695;28;20315;-76
2021/05/04 00:27:59;;;;;;;2.13;2.00;;;;;;;14.88;100.00;96545.97;5051764;28;20256;-76
2021/05/04 00:30:27;;;;;;;2.47;2.10;;;;;;;14.84;100.00;96544.69;5052080;28;20276;-75
2021/05/04 00:32:54;;;;;;;2.30;2.10;;;;;;;14.96;100.00;96539.78;5051966;28;20206;-75
2021/05/04 00:35:21;;;;;;;2.77;1.57;;;;;;;15.09;100.00;96544.47;5051790;28;20198;-76
2021/05/04 00:37:48;;;;;;;1.93;1.63;;;;;;;15.12;100.00;96541.47;5051952;28;20301;-76
2021/05/04 00:40:16;;;;;;;2.07;1.90;;;;;;;15.04;100.00;96542.38;5052017;28;20252;-76
2021/05/04 00:42:43;;;;;;;2.03;1.77;;;;;;;15.09;100.00;96534.69;5051873;28;20244;-76
2021/05/04 00:45:10;;;;;;;2.70;2.00;;;;;;;15.16;100.00;96529.50;5051651;28;20190;-75
2021/05/04 00:47:39;;;;;;;3.37;2.00;;;;;;;14.97;100.00;96536.16;5052071;28;20298;-76
2021/05/04 00:50:07;;;;;;;1.57;1.47;;;;;;;15.06;100.00;96523.66;5051389;28;20322;-76
2021/05/04 00:52:34;;;;;;;2.53;1.80;;;;;;;14.99;100.00;96528.84;5052046;28;20277;-76
2021/05/04 00:55:03;;;;;;;2.03;1.90;;;;;;;15.06;100.00;96521.00;5051341;28;20202;-76
2021/05/04 00:57:31;;;;;;;2.80;2.27;;;;;;;14.80;100.00;96526.72;5051699;28;20194;-75
2021/05/04 01:00:00;;;;;;;3.47;2.37;;;;;;;15.02;100.00;96525.03;5051532;28;20202;-76
2021/05/04 01:02:27;;;;;;;2.27;2.07;;;;;;;15.15;100.00;96525.22;5051645;28;20203;-76
2021/05/04 01:04:55;;;;;;;2.03;1.70;;;;;;;15.13;100.00;96532.53;5051533;28;20634;-76
2021/05/04 01:07:22;;;;;;;3.63;1.83;;;;;;;15.09;100.00;96536.53;5051984;28;20202;-76
2021/05/04 01:09:48;;;;;;;1.60;1.50;;;;;;;15.15;100.00;96547.22;5051282;28;20226;-76
2021/05/04 01:12:15;;;;;;;2.83;1.53;;;;;;;14.99;100.00;96537.59;5051604;28;20739;-76
2021/05/04 01:14:42;;;;;;;1.97;1.70;;;;;;;15.09;100.00;96542.66;5051684;28;20205;-76
2021/05/04 01:17:09;;;;;;;1.83;1.73;;;;;;;15.19;100.00;96537.91;5051318;28;20344;-76
2021/05/04 01:19:35;;;;;;;1.83;1.70;;;;;;;15.25;100.00;96544.31;5051380;28;20289;-76
2021/05/04 01:22:03;;;;;;;1.77;1.67;;;;;;;15.27;100.00;96547.59;5051454;28;20625;-76
2021/05/04 01:24:30;;;;;;;2.00;1.80;;;;;;;14.81;100.00;96544.22;5051607;28;20316;-76
2021/05/04 01:26:58;;;;;;;1.83;1.73;;;;;;;14.65;100.00;96566.34;5051168;28;20205;-76
2021/05/04 01:29:26;;;;;;;2.07;1.23;;;;;;;14.76;100.00;96552.72;5051267;28;20756;-75
2021/05/04 01:31:53;;;;;;;1.50;1.40;;;;;;;15.01;100.00;96555.97;5051424;28;20194;-76
2021/05/04 01:34:20;;;;;;;2.90;2.10;;;;;;;14.87;100.00;96562.88;5051212;28;20200;-76
2021/05/04 01:36:47;;;;;;;1.50;1.40;;;;;;;14.90;100.00;96559.06;5053470;28;20201;-76
2021/05/04 01:39:15;;;;;;;2.30;2.10;;;;;;;15.08;100.00;96556.91;5054953;28;20290;-76
2021/05/04 01:41:41;;;;;;;2.07;1.87;;;;;;;14.96;100.00;96561.81;5055010;28;20293;-76
2021/05/04 01:44:09;;;;;;;1.50;1.40;;;;;;;14.61;100.00;96560.56;5055191;28;20252;-76
2021/05/04 01:46:37;;;;;;;2.03;1.83;;;;;;;14.54;100.00;96556.16;5055021;28;20201;-76
2021/05/04 01:49:06;;;;;;;1.70;1.60;;;;;;;14.37;100.00;96558.88;5054533;28;20721;-76
2021/05/04 01:51:33;;;;;;;3.77;1.70;;;;;;;14.46;100.00;96557.84;5054975;28;20190;-76
2021/05/04 01:54:00;;;;;;;2.50;1.50;;;;;;;14.64;100.00;96554.94;5054700;28;20194;-76
2021/05/04 01:56:28;;;;;;;2.60;1.87;;;;;;;14.64;100.00;96554.13;5054886;28;20282;-76
2021/05/04 01:58:59;;;;;;;2.43;1.53;;;;;;;14.62;100.00;96562.25;5054665;28;20193;-76
2021/05/04 02:01:26;;;;;;;2.10;1.70;;;;;;;14.64;100.00;96549.63;5055057;28;20185;-76
2021/05/04 02:03:53;;;;;;;1.90;1.80;;;;;;;14.42;100.00;96547.81;5054328;28;20197;-75
2021/05/04 02:06:20;;;;;;;6.50;1.90;;;;;;;14.41;100.00;96560.22;5054604;28;20718;-76
2021/05/04 02:08:47;;;;;;;2.43;1.60;;;;;;;14.69;100.00;96552.59;5055148;28;20649;-86
2021/05/04 02:11:14;;;;;;;2.27;1.70;;;;;;;14.76;100.00;96558.00;5055322;28;20234;-87
2021/05/04 02:13:42;;;;;;;1.70;1.60;;;;;;;14.79;100.00;96565.59;5054973;28;20717;-86
2021/05/04 02:16:09;;;;;;;1.90;1.63;;;;;;;14.40;100.00;96565.66;5054937;28;20204;-86
2021/05/04 02:18:36;;;;;;;3.77;2.13;;;;;;;14.23;100.00;96573.66;5055057;28;20678;-86
2021/05/04 02:21:03;;;;;;;2.00;1.80;;;;;;;14.20;100.00;96573.19;5055015;28;20285;-86
2021/05/04 02:23:31;;;;;;;2.40;2.07;;;;;;;14.28;100.00;96578.47;5054934;28;20296;-86
2021/05/04 02:25:58;;;;;;;3.03;1.93;;;;;;;14.18;100.00;96580.50;5055019;28;20221;-85
2021/05/04 02:28:25;;;;;;;2.93;2.00;;;;;;;14.38;100.00;96580.88;5054858;28;20688;-86
2021/05/04 02:30:53;;;;;;;1.70;1.60;;;;;;;14.31;100.00;96575.47;5055068;28;20575;-86
2021/05/04 02:33:20;;;;;;;2.20;1.93;;;;;;;14.68;100.00;96573.91;5055113;28;20217;-86
2021/05/04 02:35:47;;;;;;;2.10;1.90;;;;;;;14.37;100.00;96574.75;5054577;28;20229;-86
2021/05/04 02:38:14;;;;;;;1.90;1.80;;;;;;;14.26;100.00;96580.44;5054619;28;20194;-86
2021/05/04 02:40:40;;;;;;;1.90;1.70;;;;;;;14.12;100.00;96582.00;5055009;28;20252;-86
2021/05/04 02:43:07;;;;;;;2.03;1.77;;;;;;;13.99;100.00;96587.88;5054736;28;20198;-86
2021/05/04 02:45:34;;;;;;;1.90;1.80;;;;;;;14.14;100.00;96577.38;5054625;28;20218;-86
2021/05/04 02:48:02;;;;;;;2.80;1.93;;;;;;;13.95;100.00;96591.00;5054618;28;20275;-86
2021/05/04 02:50:29;;;;;;;4.67;2.67;;;;;;;14.13;100.00;96590.75;5054339;28;20265;-86
2021/05/04 02:52:56;;;;;;;1.87;1.60;;;;;;;14.12;100.00;96592.56;5054413;28;20276;-86
2021/05/04 02:55:23;;;;;;;2.60;2.17;;;;;;;13.85;100.00;96599.13;5052883;28;20281;-87
2021/05/04 02:57:49;;;;;;;2.53;1.90;;;;;;;13.73;100.00;96600.50;5054688;28;20190;-91
2021/05/04 03:00:17;;;;;;;1.70;1.60;;;;;;;13.87;100.00;96599.78;5055056;28;20228;-92
2021/05/04 03:02:44;;;;;;;2.40;2.20;;;;;;;13.95;100.00;96607.66;5054905;28;20229;-92
2021/05/04 03:05:12;;;;;;;3.27;1.80;;;;;;;13.98;100.00;96609.97;5055168;28;20221;-87
2021/05/04 03:07:38;;;;;;;1.90;1.80;;;;;;;13.72;100.00;96626.09;5053998;28;20285;-86
2021/05/04 03:10:06;;;;;;;2.30;2.07;;;;;;;13.83;100.00;96618.81;5053952;28;20777;-87
2021/05/04 03:12:33;;;;;;;2.77;2.10;;;;;;;13.62;100.00;96638.66;5054169;28;20193;-87
2021/05/04 03:15:00;;;;;;;2.07;1.87;;;;;;;13.53;100.00;96640.47;5053724;28;20198;-86
2021/05/04 03:17:27;;;;;;;1.87;1.77;;;;;;;13.60;100.00;96630.06;5053802;28;20281;-87
2021/05/04 03:19:53;;;;;;;1.87;1.73;;;;;;;13.62;100.00;96640.50;5053519;28;20704;-86
2021/05/04 03:22:21;;;;;;;2.00;1.90;;;;;;;13.86;100.00;96634.31;5053891;28;20232;-87
2021/05/04 03:24:48;;;;;;;2.03;1.93;;;;;;;14.07;100.00;96631.09;5053626;28;20229;-86
2021/05/04 03:27:15;;;;;;;1.77;1.67;;;;;;;13.79;100.00;96642.91;5053717;28;20194;-88
2021/05/04 03:29:42;;;;;;;2.03;1.87;;;;;;;13.98;100.00;96641.69;5053654;28;20237;-86
2021/05/04 03:32:09;;;;;;;2.83;1.80;;;;;;;13.92;100.00;96634.44;5053854;28;20248;-87
2021/05/04 03:34:36;;;;;;;2.03;1.93;;;;;;;14.05;100.00;96639.19;5053504;28;20288;-87
2021/05/04 03:37:03;;;;;;;4.23;2.00;;;;;;;14.00;100.00;96647.63;5053262;28;20236;-86
2021/05/04 03:39:31;;;;;;;2.17;1.70;;;;;;;13.92;100.00;96655.56;5053140;28;20225;-87
2021/05/04 03:41:57;;;;;;;2.40;2.10;;;;;;;13.96;100.00;96656.91;5053224;28;20201;-86
2021/05/04 03:44:24;;;;;;;5.93;2.00;;;;;;;14.22;100.00;96647.88;5053079;28;20202;-86
2021/05/04 03:46:51;;;;;;;3.17;2.03;;;;;;;13.89;100.00;96657.72;5053542;28;20746;-86
2021/05/04 03:49:18;;;;;;;1.80;1.67;;;;;;;13.83;100.00;96661.06;5052500;28;20240;-86
2021/05/04 03:51:45;;;;;;;1.67;1.57;;;;;;;13.87;100.00;96657.91;5053195;28;20201;-86
2021/05/04 03:54:12;;;;;;;5.20;2.40;;;;;;;14.01;100.00;96659.84;5053094;28;20229;-86
2021/05/04 03:56:40;;;;;;;1.67;1.57;;;;;;;14.09;100.00;96666.09;5052925;28;20233;-87
2021/05/04 03:59:07;;;;;;;2.53;2.00;;;;;;;14.06;100.00;96675.19;5052686;28;20197;-86
2021/05/04 04:01:35;;;;;;;2.53;1.80;;;;;;;14.09;100.00;96679.31;5053142;28;20204;-87
2021/05/04 04:04:02;;;;;;;1.83;1.73;;;;;;;13.87;100.00;96686.97;5053176;28;20206;-86
2021/05/04 04:06:29;;;;;;;2.00;1.90;;;;;;;13.26;100.00;96698.91;5052976;28;20237;-86
2021/05/04 04:08:56;;;;;;;2.70;2.50;;;;;;;13.41;100.00;96701.75;5053673;28;20285;-87
2021/05/04 04:11:23;;;;;;;2.13;2.00;;;;;;;13.44;100.00;96691.69;5052972;28;20232;-87
2021/05/04 04:13:51;;;;;;;2.80;1.73;;;;;;;13.65;100.00;96700.91;5053092;28;20556;-89
2021/05/04 04:16:17;;;;;;;2.00;1.70;;;;;;;13.46;100.00;96707.34;5053250;28;20686;-88
2021/05/04 04:18:44;;;;;;;2.10;1.90;;;;;;;13.34;100.00;96717.41;5053239;28;20198;-89
2021/05/04 04:21:11;;;;;;;2.77;2.57;;;;;;;13.41;100.00;96714.94;5053207;28;20292;-88
2021/05/04 04:23:38;;;;;;;2.57;1.80;;;;;;;13.36;100.00;96710.13;5052790;28;20289;-89
2021/05/04 04:26:04;;;;;;;2.20;2.10;;;;;;;13.68;100.00;96709.31;5052589;28;20201;-87
2021/05/04 04:28:32;;;;;;;1.90;1.80;;;;;;;13.49;100.00;96702.56;5052762;28;20788;-87
2021/05/04 04:31:00;;;;;;;2.60;2.33;;;;;;;13.55;100.00;96706.34;5052785;28;20230;-87
2021/05/04 04:33:27;;;;;;;2.23;1.80;;;;;;;13.68;100.00;96711.09;5052821;28;20194;-87
2021/05/04 04:35:54;;;;;;;3.20;2.07;;;;;;;14.20;100.00;96700.09;5052603;28;20227;-87
2021/05/04 04:38:21;;;;;;;2.83;2.20;;;;;;;14.24;100.00;96712.00;5052489;28;20205;-87
2021/05/04 04:40:48;;;;;;;4.33;3.93;;;;;;;14.26;100.00;96699.41;5052542;28;20698;-86
2021/05/04 04:43:15;;;;;;;3.00;2.80;;;;;;;14.25;100.00;96693.31;5052371;28;20230;-86
2021/05/04 04:45:42;;;;;;;2.83;2.43;;;;;;;14.08;100.00;96697.00;5052397;28;20202;-86
2021/05/04 04:48:10;;;;;;;7.40;2.37;;;;;;;14.24;100.00;96696.13;5052522;28;20691;-87
2021/05/04 04:50:37;;;;;;;6.00;2.20;;;;;;;14.27;100.00;96706.38;5051972;28;20665;-88
2021/05/04 04:53:04;;;;;;;3.60;2.43;;;;;;;14.30;100.00;96706.00;5052291;28;20222;-87
2021/05/04 04:55:31;;;;;;;2.03;1.93;;;;;;;14.24;100.00;96701.41;5052318;28;20339;-87
2021/05/04 04:57:59;;;;;;;2.20;2.10;;;;;;;14.36;100.00;96699.22;5052299;28;20201;-88
2021/05/04 05:00:26;;;;;;;2.27;2.07;;;;;;;14.52;100.00;96687.78;5052384;28;20248;-87
2021/05/04 05:02:52;;;;;;;2.17;1.97;;;;;;;14.33;100.00;96700.38;5052223;28;20241;-87
2021/05/04 05:05:21;;;;;;;3.77;2.43;;;;;;;14.43;100.00;96689.59;5052339;28;20261;-87
2021/05/04 05:07:47;;;;;;;4.90;2.30;;;;;;;14.52;100.00;96687.78;5052213;28;20205;-87
2021/05/04 05:10:14;;;;;;;2.50;2.30;;;;;;;14.39;100.00;96689.13;5051864;28;20717;-87
2021/05/04 05:12:41;;;;;;;2.80;2.20;;;;;;;14.33;100.00;96686.34;5056150;28;20284;-87
2021/05/04 05:15:09;;;;;;;1.87;1.77;;;;;;;14.26;100.00;96704.69;5056488;28;20637;-87
2021/05/04 05:17:37;;;;;;;1.97;1.87;;;;;;;14.40;100.00;96687.28;5056048;28;20193;-87
2021/05/04 05:20:05;;;;;;;5.40;2.50;;;;;;;14.54;100.00;96683.94;5055767;28;20237;-87
2021/05/04 05:22:33;;;;;;;8.90;2.83;;;;;;;14.55;100.00;96684.75;5055818;28;20255;-87
2021/05/04 05:25:00;;;;;;;3.53;2.73;;;;;;;14.64;100.00;96683.75;5055587;28;20736;-87
2021/05/04 05:27:30;;;;;;;6.43;4.77;;;;;;;14.81;100.00;96693.22;5055756;28;20688;-86
2021/05/04 05:29:57;;;;;;;3.90;3.50;;;;;;;14.68;100.00;96688.50;5055349;28;20217;-86
2021/05/04 05:32:24;;;;;;;3.77;2.60;;;;;;;14.96;100.00;96701.22;5055542;28;20244;-87
2021/05/04 05:34:51;;;;;;;2.87;2.53;;;;;;;15.03;100.00;96704.00;5055750;28;20201;-87
2021/05/04 05:37:18;;;;;;;4.10;2.70;;;;;;;15.22;100.00;96704.38;5055482;28;20194;-87
2021/05/04 05:39:46;;;;;;;2.93;2.73;;;;;;;15.19;100.00;96702.06;5055323;28;20212;-87
2021/05/04 05:42:14;;;;;;;3.63;2.10;;;;;;;15.09;100.00;96692.72;5055278;28;20671;-87
2021/05/04 05:44:41;;;;;;;4.67;2.30;;;;;;;14.80;100.00;96701.34;5055535;28;20202;-87
2021/05/04 05:47:08;;;;;;;4.53;2.47;;;;;;;14.65;100.00;96685.38;5055510;28;20199;-87
2021/05/04 05:49:39;;;;;;;2.40;1.90;;;;;;;15.06;100.00;96690.44;5055047;28;20233;-87
2021/05/04 05:52:06;;;;;;;3.73;2.57;;;;;;;15.44;100.00;96700.06;5055208;28;20202;-87
2021/05/04 05:54:33;;;;;;;2.60;1.70;;;;;;;15.46;100.00;96698.06;5055137;28;20238;-87
2021/05/04 05:57:01;;;;;;;4.23;1.93;;;;;;;15.32;100.00;96706.78;5055512;28;20237;-87
2021/05/04 05:59:28;;;;;;;4.37;1.93;;;;;;;15.53;100.00;96703.47;5055335;28;20558;-87
2021/05/04 06:01:55;;;;;;;2.00;1.90;;;;;;;15.56;100.00;96707.59;5055239;28;20198;-87
2021/05/04 06:04:22;;;;;;;3.37;2.13;;;;;;;15.43;100.00;96711.66;5055200;28;20202;-87
2021/05/04 06:06:49;;;;;;;1.90;1.80;;;;;;;15.30;100.00;96714.06;5054792;28;20242;-87
2021/05/04 06:09:15;;;;;;;3.70;2.50;;;;;;;15.23;100.00;96721.91;5054964;28;20202;-86
2021/05/04 06:11:42;;;;;;;2.70;1.80;;;;;;;15.30;100.00;96713.25;5055016;28;20222;-87
2021/05/04 06:14:10;;;;;;;2.47;2.30;;;;;;;15.24;100.00;96717.44;5052792;28;20202;-86
2021/05/04 06:16:37;;;;;;;7.03;2.93;;;;;;;15.36;100.00;96717.84;5055206;28;20289;-88
2021/05/04 06:19:04;;;;;;;7.27;2.03;;;;;;;15.49;100.00;96719.91;5054953;28;20198;-88
2021/05/04 06:21:31;;;;;;;2.63;1.83;;;;;;;15.67;100.00;96729.22;5054642;28;20192;-88
2021/05/04 06:23:58;;;;;;;5.40;2.17;;;;;;;15.38;100.00;96735.22;5055013;28;20222;-88
2021/05/04 06:26:26;;;;;;;6.43;3.30;;;;;;;15.54;100.00;96742.19;5054936;28;20202;-87
2021/05/04 06:28:56;;;;;;;2.20;2.00;;;;;;;15.33;100.00;96734.91;5054944;28;20194;-88
2021/05/04 06:31:24;;;;;;;1.80;1.70;;;;;;;15.32;100.00;96735.91;5054799;28;20318;-88
2021/05/04 06:33:51;;;;;;;3.53;1.80;;;;;;;15.32;100.00;96725.31;5054764;28;20232;-88
2021/05/04 06:36:21;;;;;;;1.80;1.70;;;;;;;15.45;100.00;96728.22;5054669;28;20195;-88
2021/05/04 06:38:47;;;;;;;2.00;1.90;;;;;;;15.48;100.00;96726.19;5054555;28;20718;-88
2021/05/04 06:41:14;;;;;;;1.90;1.80;;;;;;;15.59;100.00;96728.44;5054763;28;20580;-87
2021/05/04 06:43:42;;;;;;;2.00;1.90;;;;;;;15.59;100.00;96723.97;5053461;28;20206;-87
2021/05/04 06:46:09;;;;;;;5.13;1.60;;;;;;;15.67;100.00;96721.25;5054527;28;20207;-88
2021/05/04 06:48:36;;;;;;;3.13;1.70;;;;;;;15.75;100.00;96709.75;5054049;28;20208;-88
2021/05/04 06:51:06;;;;;;;2.00;1.90;;;;;;;15.84;100.00;96706.03;5054321;28;20681;-88
2021/05/04 06:53:33;;;;;;;2.20;2.00;;;;;;;15.91;100.00;96706.13;5054474;28;20572;-89
2021/05/04 06:56:00;;;;;;;1.93;1.83;;;;;;;15.92;100.00;96695.34;5054408;28;20203;-88
2021/05/04 06:58:27;;;;;;;2.17;1.97;;;;;;;15.76;100.00;96703.47;5053167;28;20200;-88
2021/05/04 07:00:54;;;;;;;1.83;1.57;;;;;;;16.03;100.00;96701.19;5054707;28;20220;-88
2021/05/04 07:03:21;;;;;;;2.90;1.97;;;;;;;16.10;100.00;96694.97;5054578;28;20226;-88
2021/05/04 07:05:49;;;;;;;1.97;1.87;;;;;;;16.05;100.00;96697.38;5054272;28;20193;-89
2021/05/04 07:08:16;;;;;;;8.27;4.57;;;;;;;15.90;100.00;96704.50;5054222;28;20196;-89
2021/05/04 07:10:43;;;;;;;2.80;2.60;;;;;;;15.93;100.00;96702.31;5053309;28;20222;-89
2021/05/04 07:13:17;;;;;;;2.40;2.20;;;;;;;15.93;100.00;96702.31;5053901;28;20645;-89
2021/05/04 07:15:44;;;;;;;2.50;2.30;;;;;;;15.75;100.00;96701.81;5054192;28;20198;-88
2021/05/04 07:18:12;;;;;;;3.13;2.93;;;;;;;16.07;100.00;96694.53;5054306;28;20564;-89
2021/05/04 07:20:39;;;;;;;5.10;2.63;;;;;;;16.98;100.00;96671.19;5054180;28;20645;-85
2021/05/04 07:23:09;;;;;;;3.97;2.43;;;;;;;17.07;100.00;96670.03;5054367;28;20564;-87
2021/05/04 07:25:39;;;;;;;2.63;2.43;;;;;;;17.11;100.00;96672.13;5052394;28;20204;-87
2021/05/04 07:28:08;;;;;;;5.27;2.57;;;;;;;16.58;100.00;96692.75;5052862;28;20208;-87
2021/05/04 07:30:39;;;;;;;2.07;1.80;;;;;;;17.24;100.00;96675.91;5053463;28;20704;-87
2021/05/04 07:33:06;;;;;;;5.27;2.17;;;;;;;17.38;100.00;96676.84;5052987;28;20727;-87
2021/05/04 07:35:35;;;;;;;2.50;2.27;;;;;;;18.00;100.00;96673.47;5053039;28;20253;-88
2021/05/04 07:38:04;;;;;;;2.37;1.80;;;;;;;18.13;100.00;96670.88;5052303;28;20207;-87
2021/05/04 07:40:33;;;;;;;2.17;1.93;;;;;;;19.08;100.00;96644.44;5053176;28;20204;-88
2021/05/04 07:42:59;;;;;;;2.60;2.40;;;;;;;19.65;100.00;96645.72;5053449;28;20200;-87
2021/05/04 07:45:27;;;;;;;2.10;2.00;;;;;;;19.04;100.00;96646.69;5053497;28;20284;-87
2021/05/04 07:47:56;;;;;;;2.97;1.90;;;;;;;19.14;100.00;96647.09;5051809;28;20202;-88
2021/05/04 07:50:25;;;;;;;2.00;1.80;;;;;;;19.05;100.00;96653.66;5052973;28;20234;-86
2021/05/04 07:52:52;;;;;;;3.67;2.47;;;;;;;19.53;100.00;96642.81;5053235;28;20194;-86
2021/05/04 07:55:28;;;;;;;1.87;1.70;;;;;;;20.18;100.00;96626.94;5051775;28;20202;-86
2021/05/04 07:57:56;;;;;;;2.30;1.77;;;;;;;19.96;100.00;96639.72;5053223;28;20186;-87
2021/05/04 08:00:24;;;;;;;2.23;2.03;;;;;;;20.13;100.00;96635.56;5053031;28;20272;-87
2021/05/04 08:02:50;;;;;;;2.03;1.67;;;;;;;21.19;100.00;96612.06;5052782;28;20296;-87
2021/05/04 08:05:20;;;;;;;3.23;1.70;;;;;;;21.53;100.00;96613.47;5052662;28;20648;-87
2021/05/04 08:07:47;;;;;;;2.30;1.90;;;;;;;21.10;100.00;96620.34;5051669;28;20201;-87
2021/05/04 08:10:15;;;;;;;2.30;1.97;;;;;;;20.84;100.00;96615.16;5052630;28;20222;-87
2021/05/04 08:12:42;;;;;;;4.80;2.00;;;;;;;20.65;100.00;96607.06;5052958;28;20198;-87
2021/05/04 08:15:16;;;;;;;4.80;2.07;;;;;;;20.25;100.00;96621.56;5052420;28;20661;-86
2021/05/04 08:17:47;;;;;;;1.73;1.63;;;;;;;21.18;100.00;96605.88;5051283;28;20243;-86
2021/05/04 08:20:16;;;;;;;4.10;3.27;;;;;;;21.47;100.00;96604.44;5052084;28;20202;-86
2021/05/04 08:22:43;;;;;;;1.70;1.60;;;;;;;22.00;100.00;96587.88;5052031;28;20284;-86
2021/05/04 08:25:11;;;;;;;2.30;1.80;;;;;;;21.32;100.00;96601.25;5052029;28;20582;-86
2021/05/04 08:27:38;;;;;;;1.43;1.33;;;;;;;20.08;100.00;96611.34;5050858;28;20198;-86
2021/05/04 08:30:07;;;;;;;3.70;2.73;;;;;;;21.34;100.00;96600.03;5051943;28;20336;-86
2021/05/04 08:32:36;;;;;;;1.70;1.60;;;;;;;21.52;100.00;96595.78;5052039;28;20198;-86
2021/05/04 08:35:04;;;;;;;2.03;1.50;;;;;;;20.88;100.00;96603.81;5051667;28;20229;-86
2021/05/04 08:37:31;;;;;;;2.70;1.57;;;;;;;21.16;100.00;96604.47;5051989;28;20675;-86
2021/05/04 08:39:58;;;;;;;3.37;3.10;;;;;;;21.33;100.00;96597.53;5051825;28;20229;-86
2021/05/04 08:42:25;;;;;;;5.40;2.70;;;;;;;21.45;100.00;96595.84;5051695;28;20197;-86
2021/05/04 08:44:53;;;;;;;1.50;1.40;;;;;;;21.78;100.00;96590.16;5051393;28;20271;-86
2021/05/04 08:47:20;;;;;;;3.87;2.07;;;;;;;22.36;100.00;96580.09;5051960;28;20185;-86
2021/05/04 08:49:48;;;;;;;2.30;2.10;;;;;;;22.59;100.00;96574.03;5051594;28;20268;-86
2021/05/04 08:52:17;;;;;;;2.00;1.83;;;;;;;22.18;100.00;96576.38;5051539;28;20240;-86
2021/05/04 08:54:43;;;;;;;2.10;1.83;;;;;;;22.16;100.00;96588.34;5051870;28;20304;-85
2021/05/04 08:57:10;;;;;;;2.67;1.97;;;;;;;22.33;100.00;96580.53;5051322;28;20205;-85
2021/05/04 08:59:39;;;;;;;1.50;1.40;;;;;;;22.31;100.00;96580.78;5051664;28;20271;-86
2021/05/04 09:02:06;;;;;;;2.70;1.50;;;;;;;22.13;100.00;96592.25;5048389;28;20236;-87
2021/05/04 09:04:37;;;;;;;1.80;1.70;;;;;;;21.50;100.00;96595.97;5052312;28;20202;-87
2021/05/04 09:07:22;;;;;;;1.60;1.50;;;;;;;22.02;100.00;96591.13;5052331;28;20243;-86
2021/05/04 09:10:08;;;;;;;1.57;1.33;;;;;;;22.68;100.00;96573.47;5051666;28;20289;-84
2021/05/04 09:12:39;;;;;;;3.30;1.80;;;;;;;22.35;100.00;96579.28;5051225;28;20194;-84
2021/05/04 09:18:38;;;;;;;2.80;1.57;;;;;;;22.43;100.00;96570.91;5037587;28;20201;-83
2021/05/04 09:21:08;;;;;;;2.93;1.80;;;;;;;22.64;100.00;96574.97;5051595;28;20178;-84
2021/05/04 09:23:37;;;;;;;2.63;2.43;;;;;;;22.65;100.00;96563.19;5051583;28;20230;-84
2021/05/04 09:26:05;;;;;;;2.50;2.10;;;;;;;21.94;100.00;96572.72;5050302;28;20197;-84
2021/05/04 09:28:34;;;;;;;2.13;1.93;;;;;;;21.79;100.00;96567.75;5050980;28;20252;-84
2021/05/04 09:31:02;;;;;;;5.93;2.80;;;;;;;21.89;100.00;96569.91;5051640;28;20244;-84
2021/05/04 09:33:40;;;;;;;3.33;1.87;;;;;;;21.75;100.00;96568.38;5051123;28;20229;-83
2021/05/04 09:36:07;;;;;;;3.63;1.90;;;;;;;21.84;100.00;96559.03;5051718;28;20186;-83
2021/05/04 09:38:47;;;;;;;2.93;1.90;;;;;;;21.99;100.00;96548.75;5051087;28;20198;-83
2021/05/04 09:41:29;;;;;;;2.00;1.80;;;;;;;21.91;100.00;96549.06;5050927;28;20263;-84
2021/05/04 09:43:57;;;;;;;1.97;1.87;;;;;;;21.78;100.00;96551.88;5051069;28;20229;-83
2021/05/04 09:46:45;;;;;;;4.10;2.20;;;;;;;22.00;100.00;96541.56;5050346;28;20213;-84
2021/05/04 09:49:30;;;;;;;3.50;2.13;;;;;;;21.84;100.00;96549.16;5050886;28;20229;-83
2021/05/04 09:52:21;;;;;;;2.87;2.40;;;;;;;22.26;100.00;96537.78;5034140;28;20236;-83
2021/05/04 09:54:53;;;;;;;3.00;2.70;;;;;;;21.19;100.00;96561.25;5051038;28;20221;-83
2021/05/04 09:57:35;;;;;;;7.40;5.27;;;;;;;20.58;100.00;96571.56;5051571;28;20202;-83
2021/05/04 10:00:06;;;;;;;7.40;5.43;;;;;;;21.00;100.00;96561.22;5054774;28;20194;-84
2021/05/04 10:02:33;;;;;;;4.33;1.90;;;;;;;21.20;100.00;96562.88;5054887;28;20249;-83
2021/05/04 10:05:03;;;;;;;8.47;2.67;;;;;;;20.97;100.00;96563.50;5054756;28;20198;-84
2021/05/04 10:07:32;;;;;;;4.50;3.93;;;;;;;20.64;100.00;96562.69;5054648;28;20256;-84
2021/05/04 10:10:03;;;;;;;2.37;1.50;;;;;;;20.15;100.00;96572.13;5054659;28;20644;-83
2021/05/04 10:12:32;;;;;;;3.73;3.00;;;;;;;21.10;100.00;96560.72;5053151;28;20281;-86
2021/05/04 10:15:03;;;;;;;5.20;3.13;;;;;;;21.78;100.00;96554.56;5054313;28;20236;-86
2021/05/04 10:17:33;;;;;;;5.17;2.87;;;;;;;21.89;100.00;96553.00;5054535;28;20194;-86
2021/05/04 10:20:04;;;;;;;8.80;3.67;;;;;;;22.36;100.00;96535.38;5054473;28;20193;-86
2021/05/04 10:22:32;;;;;;;4.60;3.67;;;;;;;22.34;100.00;96540.13;5054599;28;20194;-85
2021/05/04 10:25:01;;;;;;;3.17;2.40;;;;;;;21.83;100.00;96549.38;5052175;28;20633;-86
2021/05/04 10:27:28;;;;;;;3.90;2.43;;;;;;;21.54;100.00;96549.03;5053953;28;20640;-86
2021/05/04 10:29:57;;;;;;;1.70;1.60;;;;;;;21.93;100.00;96530.94;5052275;28;20205;-85
2021/05/04 10:33:01;;;;;;;3.93;1.80;;;;;;;22.10;100.00;96531.16;5049674;28;20584;-86
2021/05/04 10:35:36;;;;;;;1.87;1.77;;;;;;;21.51;100.00;96538.81;5012154;28;20283;-84
2021/05/04 10:38:05;;;;;;;2.40;2.13;;;;;;;22.02;100.00;96520.75;5012511;28;20223;-86
2021/05/04 10:40:37;;;;;;;8.10;2.27;;;;;;;21.94;100.00;96521.06;4995799;28;20206;-86
2021/05/04 10:43:39;;;;;;;4.30;1.90;;;;;;;21.80;100.00;96533.78;5012253;28;20184;-86
2021/05/04 10:46:14;;;;;;;5.30;3.47;;;;;;;22.72;100.00;96502.31;5011957;28;20202;-84
2021/05/04 10:48:49;;;;;;;1.83;1.73;;;;;;;22.18;100.00;96508.66;5011626;28;20302;-85
2021/05/04 10:51:19;;;;;;;1.70;1.60;;;;;;;22.05;100.00;96505.06;5012195;28;20203;-84
2021/05/04 10:54:10;;;;;;;3.50;1.50;;;;;;;21.96;100.00;96501.06;5011453;28;20211;-85
2021/05/04 10:56:46;;;;;;;3.20;1.50;;;;;;;21.88;100.00;96501.34;5011332;28;20253;-84
2021/05/04 10:59:30;;;;;;;1.90;1.70;;;;;;;22.24;100.00;96505.06;5011156;28;20285;-85
2021/05/04 11:02:27;;;;;;;1.73;1.63;;;;;;;22.39;100.00;96510.81;5011462;28;20202;-84
2021/05/04 11:04:57;;;;;;;1.80;1.70;;;;;;;22.73;100.00;96503.13;5011839;28;20699;-84
2021/05/04 11:07:57;;;;;;;1.77;1.67;;;;;;;22.45;100.00;96501.06;5052689;28;20682;-84
2021/05/04 11:10:31;;;;;;;4.93;3.17;;;;;;;22.88;100.00;96502.69;5051236;28;20221;-85
2021/05/04 11:13:05;;;;;;;14.03;3.60;;;;;;;22.23;100.00;96516.81;5053528;28;20179;-84
2021/05/04 11:15:38;;;;;;;12.60;2.60;;;;;;;21.62;100.00;96515.03;5053366;28;20197;-85
2021/05/04 11:18:07;;;;;;;4.80;2.00;;;;;;;21.94;100.00;96503.13;5052388;28;20213;-85
2021/05/04 11:20:39;;;;;;;8.67;2.30;;;;;;;21.71;100.00;96508.34;5052802;28;20202;-85
2021/05/04 11:23:09;;;;;;;5.97;2.70;;;;;;;21.90;100.00;96506.50;5020022;28;20205;-85
2021/05/04 11:25:40;;;;;;;10.07;4.07;;;;;;;22.49;100.00;96483.50;5051860;28;20745;-84
2021/05/04 11:28:09;;;;;;;5.63;3.90;;;;;;;22.52;100.00;96483.84;5051816;28;20251;-84
2021/05/04 11:30:42;;;;;;;1.43;1.33;;;;;;;22.31;100.00;96485.19;5052859;28;20253;-83
2021/05/04 11:33:28;;;;;;;3.17;1.87;;;;;;;22.09;100.00;96490.16;5053251;28;20186;-83
2021/05/04 11:35:59;;;;;;;2.47;2.07;;;;;;;22.37;100.00;96482.63;5051547;28;20202;-82